sensor_id;sensor_type;location;lat;lon;timestamp;temperature;humidity
12688;DHT22;6408;59.388;17.798;2023-02-27T00:01:14;-2.10;99.90
12688;DHT22;6408;59.388;17.798;2023-02-27T00:03:42;-2.10;99.90
12688;DHT22;6408;59.388;17.798;2023-02-27T00:06:12;-2.00;99.90
12688;DHT22;6408;59.388;17.798;2023-02-27T00:08:42;-2.00;99.90
12688;DHT22;6408;59.388;17.798;2023-02-27T00:11:09;-1.90;99.90
12688;DHT22;6408;59.388;17.798;2023-02-27T00:13:37;-1.90;99.90
12688;DHT22;6408;59.388;17.798;2023-02-27T00:16:06;-1.80;99.90
12688;DHT22;6408;59.388;17.798;2023-02-27T00:18:34;-1.80;99.90
12688;DHT22;6408;59.388;17.798;2023-02-27T00:21:01;-1.70;99.90
12688;DHT22;6408;59.388;17.798;2023-02-27T00:23:31;-1.70;99.90
12688;DHT22;6408;59.388;17.798;2023-02-27T00:25:58;-1.60;99.90
12688;DHT22;6408;59.388;17.798;2023-02-27T00:28:27;-1.60;99.90
12688;DHT22;6408;59.388;17.798;2023-02-27T00:30:54;-1.60;99.90
12688;DHT22;6408;59.388;17.798;2023-02-27T00:33:22;-1.60;99.90
12688;DHT22;6408;59.388;17.798;2023-02-27T00:35:56;-1.60;99.90
12688;DHT22;6408;59.388;17.798;2023-02-27T00:38:27;-1.60;99.90
12688;DHT22;6408;59.388;17.798;2023-02-27T00:40:57;-1.60;99.90
12688;DHT22;6408;59.388;17.798;2023-02-27T00:43:24;-1.60;99.90
12688;DHT22;6408;59.388;17.798;2023-02-27T00:45:52;-1.60;99.90
12688;DHT22;6408;59.388;17.798;2023-02-27T00:48:20;-1.60;99.90
12688;DHT22;6408;59.388;17.798;2023-02-27T00:50:48;-1.50;99.90
12688;DHT22;6408;59.388;17.798;2023-02-27T00:53:16;-1.50;99.90
12688;DHT22;6408;59.388;17.798;2023-02-27T00:55:44;-1.50;99.90
12688;DHT22;6408;59.388;17.798;2023-02-27T00:58:13;-1.50;99.90
12688;DHT22;6408;59.388;17.798;2023-02-27T01:00:41;-1.50;99.90
12688;DHT22;6408;59.388;17.798;2023-02-27T01:03:08;-1.50;99.90
12688;DHT22;6408;59.388;17.798;2023-02-27T01:05:36;-1.40;99.90
12688;DHT22;6408;59.388;17.798;2023-02-27T01:08:04;-1.40;99.90
12688;DHT22;6408;59.388;17.798;2023-02-27T01:10:32;-1.40;99.90
12688;DHT22;6408;59.388;17.798;2023-02-27T01:12:59;-1.40;99.90
12688;DHT22;6408;59.388;17.798;2023-02-27T01:15:28;-1.40;99.90
12688;DHT22;6408;59.388;17.798;2023-02-27T01:17:56;-1.40;99.90
12688;DHT22;6408;59.388;17.798;2023-02-27T01:20:24;-1.40;99.90
12688;DHT22;6408;59.388;17.798;2023-02-27T01:22:52;-1.40;99.90
12688;DHT22;6408;59.388;17.798;2023-02-27T01:25:19;-1.40;99.90
12688;DHT22;6408;59.388;17.798;2023-02-27T01:27:47;-1.40;99.90
12688;DHT22;6408;59.388;17.798;2023-02-27T01:30:15;-1.40;99.90
12688;DHT22;6408;59.388;17.798;2023-02-27T01:32:44;-1.40;99.90
12688;DHT22;6408;59.388;17.798;2023-02-27T01:35:12;-1.40;99.90
12688;DHT22;6408;59.388;17.798;2023-02-27T01:37:39;-1.40;99.90
12688;DHT22;6408;59.388;17.798;2023-02-27T01:40:10;-1.40;99.90
12688;DHT22;6408;59.388;17.798;2023-02-27T01:42:38;-1.50;99.90
12688;DHT22;6408;59.388;17.798;2023-02-27T01:45:28;-1.50;99.90
12688;DHT22;6408;59.388;17.798;2023-02-27T01:48:04;-1.50;99.90
12688;DHT22;6408;59.388;17.798;2023-02-27T01:50:34;-1.50;99.90
12688;DHT22;6408;59.388;17.798;2023-02-27T01:53:03;-1.50;99.90
12688;DHT22;6408;59.388;17.798;2023-02-27T01:55:34;-1.40;99.90
12688;DHT22;6408;59.388;17.798;2023-02-27T01:58:03;-1.40;99.90
12688;DHT22;6408;59.388;17.798;2023-02-27T02:00:31;-1.40;99.90
12688;DHT22;6408;59.388;17.798;2023-02-27T02:03:14;-1.30;99.90
12688;DHT22;6408;59.388;17.798;2023-02-27T02:05:44;-1.30;99.90
12688;DHT22;6408;59.388;17.798;2023-02-27T02:08:14;-1.20;99.90
12688;DHT22;6408;59.388;17.798;2023-02-27T02:10:43;-1.20;99.90
12688;DHT22;6408;59.388;17.798;2023-02-27T02:13:12;-1.20;99.90
12688;DHT22;6408;59.388;17.798;2023-02-27T02:15:45;-1.20;99.90
12688;DHT22;6408;59.388;17.798;2023-02-27T02:18:20;-1.20;99.90
12688;DHT22;6408;59.388;17.798;2023-02-27T02:21:14;-1.20;99.90
12688;DHT22;6408;59.388;17.798;2023-02-27T02:24:12;-1.20;99.90
12688;DHT22;6408;59.388;17.798;2023-02-27T02:26:52;-1.20;99.90
12688;DHT22;6408;59.388;17.798;2023-02-27T02:29:53;-1.20;99.90
12688;DHT22;6408;59.388;17.798;2023-02-27T02:32:53;-1.20;99.90
12688;DHT22;6408;59.388;17.798;2023-02-27T02:36:00;-1.20;99.90
12688;DHT22;6408;59.388;17.798;2023-02-27T02:38:51;-1.20;99.90
12688;DHT22;6408;59.388;17.798;2023-02-27T02:41:25;-1.20;99.90
12688;DHT22;6408;59.388;17.798;2023-02-27T02:44:01;-1.20;99.90
12688;DHT22;6408;59.388;17.798;2023-02-27T02:46:36;-1.10;99.90
12688;DHT22;6408;59.388;17.798;2023-02-27T02:49:13;-1.10;99.90
12688;DHT22;6408;59.388;17.798;2023-02-27T02:51:49;-1.10;99.90
12688;DHT22;6408;59.388;17.798;2023-02-27T02:54:27;-1.00;99.90
12688;DHT22;6408;59.388;17.798;2023-02-27T02:57:04;-1.00;99.90
12688;DHT22;6408;59.388;17.798;2023-02-27T02:59:35;-1.00;99.90
12688;DHT22;6408;59.388;17.798;2023-02-27T03:02:07;-1.00;99.90
12688;DHT22;6408;59.388;17.798;2023-02-27T03:04:39;-1.10;99.90
12688;DHT22;6408;59.388;17.798;2023-02-27T03:07:11;-1.10;99.90
12688;DHT22;6408;59.388;17.798;2023-02-27T03:09:44;-1.00;99.90
12688;DHT22;6408;59.388;17.798;2023-02-27T03:12:17;-1.00;99.90
12688;DHT22;6408;59.388;17.798;2023-02-27T03:14:49;-1.00;99.90
12688;DHT22;6408;59.388;17.798;2023-02-27T03:17:25;-1.00;99.90
12688;DHT22;6408;59.388;17.798;2023-02-27T03:19:56;-1.00;99.90
12688;DHT22;6408;59.388;17.798;2023-02-27T03:22:27;-1.00;99.90
12688;DHT22;6408;59.388;17.798;2023-02-27T03:25:01;-1.00;99.90
12688;DHT22;6408;59.388;17.798;2023-02-27T03:27:36;-0.90;99.90
12688;DHT22;6408;59.388;17.798;2023-02-27T03:30:06;-0.90;99.90
12688;DHT22;6408;59.388;17.798;2023-02-27T03:32:40;-0.80;99.90
12688;DHT22;6408;59.388;17.798;2023-02-27T03:35:11;-0.80;99.90
12688;DHT22;6408;59.388;17.798;2023-02-27T03:37:47;-0.70;99.90
12688;DHT22;6408;59.388;17.798;2023-02-27T03:40:25;-0.70;99.90
12688;DHT22;6408;59.388;17.798;2023-02-27T03:42:59;-0.70;99.90
12688;DHT22;6408;59.388;17.798;2023-02-27T03:45:34;-0.60;99.90
12688;DHT22;6408;59.388;17.798;2023-02-27T03:48:04;-0.60;99.90
12688;DHT22;6408;59.388;17.798;2023-02-27T03:50:34;-0.60;99.90
12688;DHT22;6408;59.388;17.798;2023-02-27T03:53:04;-0.60;99.90
12688;DHT22;6408;59.388;17.798;2023-02-27T03:55:36;-0.60;99.90
12688;DHT22;6408;59.388;17.798;2023-02-27T03:58:05;-0.50;99.90
12688;DHT22;6408;59.388;17.798;2023-02-27T04:00:33;-0.50;99.90
12688;DHT22;6408;59.388;17.798;2023-02-27T04:03:01;-0.50;99.90
12688;DHT22;6408;59.388;17.798;2023-02-27T04:05:31;-0.50;99.90
12688;DHT22;6408;59.388;17.798;2023-02-27T04:08:10;-0.50;99.90
12688;DHT22;6408;59.388;17.798;2023-02-27T04:13:59;-0.40;99.90
12688;DHT22;6408;59.388;17.798;2023-02-27T04:16:58;-0.40;99.90
12688;DHT22;6408;59.388;17.798;2023-02-27T04:22:35;-0.40;99.90
12688;DHT22;6408;59.388;17.798;2023-02-27T04:25:23;-0.40;99.90
12688;DHT22;6408;59.388;17.798;2023-02-27T04:27:57;-0.40;99.90
12688;DHT22;6408;59.388;17.798;2023-02-27T04:30:34;-0.40;99.90
12688;DHT22;6408;59.388;17.798;2023-02-27T04:33:11;-0.30;99.90
12688;DHT22;6408;59.388;17.798;2023-02-27T04:35:47;-0.30;99.90
12688;DHT22;6408;59.388;17.798;2023-02-27T04:38:19;-0.30;99.90
12688;DHT22;6408;59.388;17.798;2023-02-27T04:40:51;-0.30;99.90
12688;DHT22;6408;59.388;17.798;2023-02-27T04:43:23;-0.30;99.90
12688;DHT22;6408;59.388;17.798;2023-02-27T04:45:52;-0.20;99.90
12688;DHT22;6408;59.388;17.798;2023-02-27T04:48:24;-0.30;99.90
12688;DHT22;6408;59.388;17.798;2023-02-27T04:50:56;-0.20;99.90
12688;DHT22;6408;59.388;17.798;2023-02-27T04:53:27;-0.20;99.90
12688;DHT22;6408;59.388;17.798;2023-02-27T04:56:00;-0.20;99.90
12688;DHT22;6408;59.388;17.798;2023-02-27T04:58:33;-0.20;99.90
12688;DHT22;6408;59.388;17.798;2023-02-27T05:01:04;-0.20;99.90
12688;DHT22;6408;59.388;17.798;2023-02-27T05:03:34;-0.20;99.90
12688;DHT22;6408;59.388;17.798;2023-02-27T05:06:03;-0.20;99.90
12688;DHT22;6408;59.388;17.798;2023-02-27T05:08:34;-0.20;99.90
12688;DHT22;6408;59.388;17.798;2023-02-27T05:11:08;-0.10;99.90
12688;DHT22;6408;59.388;17.798;2023-02-27T05:13:42;-0.10;99.90
12688;DHT22;6408;59.388;17.798;2023-02-27T05:16:18;-0.10;99.90
12688;DHT22;6408;59.388;17.798;2023-02-27T05:18:47;-0.10;99.90
12688;DHT22;6408;59.388;17.798;2023-02-27T05:21:21;0.00;99.90
12688;DHT22;6408;59.388;17.798;2023-02-27T05:23:55;0.00;99.90
12688;DHT22;6408;59.388;17.798;2023-02-27T05:26:31;0.00;99.90
12688;DHT22;6408;59.388;17.798;2023-02-27T05:29:05;0.10;99.90
12688;DHT22;6408;59.388;17.798;2023-02-27T05:31:40;0.10;99.90
12688;DHT22;6408;59.388;17.798;2023-02-27T05:34:13;0.10;99.90
12688;DHT22;6408;59.388;17.798;2023-02-27T05:36:46;0.10;99.90
12688;DHT22;6408;59.388;17.798;2023-02-27T05:39:19;0.10;99.90
12688;DHT22;6408;59.388;17.798;2023-02-27T05:41:51;0.10;99.90
12688;DHT22;6408;59.388;17.798;2023-02-27T05:44:26;0.10;99.90
12688;DHT22;6408;59.388;17.798;2023-02-27T05:46:57;0.10;99.90
12688;DHT22;6408;59.388;17.798;2023-02-27T05:49:29;0.10;99.90
12688;DHT22;6408;59.388;17.798;2023-02-27T05:52:01;0.10;99.90
12688;DHT22;6408;59.388;17.798;2023-02-27T05:54:35;0.10;99.90
12688;DHT22;6408;59.388;17.798;2023-02-27T05:57:08;0.10;99.90
12688;DHT22;6408;59.388;17.798;2023-02-27T05:59:41;0.20;99.90
12688;DHT22;6408;59.388;17.798;2023-02-27T06:02:10;0.20;99.90
12688;DHT22;6408;59.388;17.798;2023-02-27T06:04:38;0.10;99.90
12688;DHT22;6408;59.388;17.798;2023-02-27T06:07:06;0.10;99.90
12688;DHT22;6408;59.388;17.798;2023-02-27T06:09:34;0.10;99.90
12688;DHT22;6408;59.388;17.798;2023-02-27T06:12:02;0.10;99.90
12688;DHT22;6408;59.388;17.798;2023-02-27T06:14:29;0.10;99.90
12688;DHT22;6408;59.388;17.798;2023-02-27T06:16:58;0.10;99.90
12688;DHT22;6408;59.388;17.798;2023-02-27T06:19:26;0.20;99.90
12688;DHT22;6408;59.388;17.798;2023-02-27T06:21:54;0.20;99.90
12688;DHT22;6408;59.388;17.798;2023-02-27T06:24:21;0.30;99.90
12688;DHT22;6408;59.388;17.798;2023-02-27T06:26:50;0.40;99.90
12688;DHT22;6408;59.388;17.798;2023-02-27T06:29:18;0.50;99.90
12688;DHT22;6408;59.388;17.798;2023-02-27T06:31:45;0.50;99.90
12688;DHT22;6408;59.388;17.798;2023-02-27T06:34:15;0.50;99.90
12688;DHT22;6408;59.388;17.798;2023-02-27T06:36:42;0.60;99.90
12688;DHT22;6408;59.388;17.798;2023-02-27T06:39:10;0.60;99.90
12688;DHT22;6408;59.388;17.798;2023-02-27T06:41:37;0.70;99.90
12688;DHT22;6408;59.388;17.798;2023-02-27T06:44:05;0.80;99.90
12688;DHT22;6408;59.388;17.798;2023-02-27T06:46:33;0.80;99.90
12688;DHT22;6408;59.388;17.798;2023-02-27T06:49:00;0.90;99.90
12688;DHT22;6408;59.388;17.798;2023-02-27T06:51:30;0.90;99.90
12688;DHT22;6408;59.388;17.798;2023-02-27T06:53:58;1.00;99.90
12688;DHT22;6408;59.388;17.798;2023-02-27T06:56:26;1.00;99.90
12688;DHT22;6408;59.388;17.798;2023-02-27T06:58:54;1.00;99.90
12688;DHT22;6408;59.388;17.798;2023-02-27T07:01:21;1.10;99.90
12688;DHT22;6408;59.388;17.798;2023-02-27T07:03:51;1.10;99.90
12688;DHT22;6408;59.388;17.798;2023-02-27T07:06:18;1.20;99.90
12688;DHT22;6408;59.388;17.798;2023-02-27T07:08:47;1.30;99.90
12688;DHT22;6408;59.388;17.798;2023-02-27T07:11:15;1.30;99.90
12688;DHT22;6408;59.388;17.798;2023-02-27T07:13:43;1.40;99.90
12688;DHT22;6408;59.388;17.798;2023-02-27T07:16:10;1.50;99.90
12688;DHT22;6408;59.388;17.798;2023-02-27T07:18:38;1.60;99.90
12688;DHT22;6408;59.388;17.798;2023-02-27T07:21:06;1.70;99.90
12688;DHT22;6408;59.388;17.798;2023-02-27T07:23:34;1.80;99.90
12688;DHT22;6408;59.388;17.798;2023-02-27T07:26:03;1.90;99.90
12688;DHT22;6408;59.388;17.798;2023-02-27T07:28:31;2.00;99.90
12688;DHT22;6408;59.388;17.798;2023-02-27T07:30:58;2.00;99.90
12688;DHT22;6408;59.388;17.798;2023-02-27T07:33:26;2.10;99.90
12688;DHT22;6408;59.388;17.798;2023-02-27T07:35:54;2.20;99.90
12688;DHT22;6408;59.388;17.798;2023-02-27T07:38:21;2.20;99.90
12688;DHT22;6408;59.388;17.798;2023-02-27T07:40:49;2.20;99.90
12688;DHT22;6408;59.388;17.798;2023-02-27T07:43:18;2.30;99.90
12688;DHT22;6408;59.388;17.798;2023-02-27T07:45:46;2.30;99.90
12688;DHT22;6408;59.388;17.798;2023-02-27T07:48:15;2.30;99.90
12688;DHT22;6408;59.388;17.798;2023-02-27T07:50:43;2.30;99.90
12688;DHT22;6408;59.388;17.798;2023-02-27T07:53:10;2.30;99.90
12688;DHT22;6408;59.388;17.798;2023-02-27T07:55:38;2.30;99.90
12688;DHT22;6408;59.388;17.798;2023-02-27T07:58:06;2.40;99.90
12688;DHT22;6408;59.388;17.798;2023-02-27T08:00:35;2.40;99.90
12688;DHT22;6408;59.388;17.798;2023-02-27T08:03:03;2.50;99.90
12688;DHT22;6408;59.388;17.798;2023-02-27T08:05:31;2.60;99.90
12688;DHT22;6408;59.388;17.798;2023-02-27T08:07:58;2.60;99.90
12688;DHT22;6408;59.388;17.798;2023-02-27T08:10:26;2.60;99.90
12688;DHT22;6408;59.388;17.798;2023-02-27T08:12:54;2.70;99.90
12688;DHT22;6408;59.388;17.798;2023-02-27T08:15:21;2.80;99.90
12688;DHT22;6408;59.388;17.798;2023-02-27T08:17:51;2.80;99.90
12688;DHT22;6408;59.388;17.798;2023-02-27T08:20:18;2.90;99.90
12688;DHT22;6408;59.388;17.798;2023-02-27T08:22:47;3.00;99.90
12688;DHT22;6408;59.388;17.798;2023-02-27T08:25:15;3.00;99.90
12688;DHT22;6408;59.388;17.798;2023-02-27T08:27:42;3.10;99.90
12688;DHT22;6408;59.388;17.798;2023-02-27T08:30:11;3.20;99.90
12688;DHT22;6408;59.388;17.798;2023-02-27T08:32:39;3.40;99.90
12688;DHT22;6408;59.388;17.798;2023-02-27T08:35:09;3.40;99.90
12688;DHT22;6408;59.388;17.798;2023-02-27T08:37:36;3.40;99.90
12688;DHT22;6408;59.388;17.798;2023-02-27T08:40:05;3.50;99.90
12688;DHT22;6408;59.388;17.798;2023-02-27T08:42:33;3.50;99.90
12688;DHT22;6408;59.388;17.798;2023-02-27T08:45:01;3.60;99.90
12688;DHT22;6408;59.388;17.798;2023-02-27T08:47:29;3.60;99.90
12688;DHT22;6408;59.388;17.798;2023-02-27T08:49:57;3.60;99.90
12688;DHT22;6408;59.388;17.798;2023-02-27T08:52:26;3.60;99.90
12688;DHT22;6408;59.388;17.798;2023-02-27T08:54:54;3.70;99.90
12688;DHT22;6408;59.388;17.798;2023-02-27T08:57:22;3.80;99.90
12688;DHT22;6408;59.388;17.798;2023-02-27T08:59:49;3.80;99.90
12688;DHT22;6408;59.388;17.798;2023-02-27T09:02:17;3.90;99.90
12688;DHT22;6408;59.388;17.798;2023-02-27T09:04:48;4.10;99.90
12688;DHT22;6408;59.388;17.798;2023-02-27T09:07:15;4.20;99.90
12688;DHT22;6408;59.388;17.798;2023-02-27T09:09:45;4.30;99.90
12688;DHT22;6408;59.388;17.798;2023-02-27T09:12:12;4.50;99.90
12688;DHT22;6408;59.388;17.798;2023-02-27T09:14:40;4.50;99.90
12688;DHT22;6408;59.388;17.798;2023-02-27T09:17:08;4.60;99.90
12688;DHT22;6408;59.388;17.798;2023-02-27T09:19:35;5.00;99.90
12688;DHT22;6408;59.388;17.798;2023-02-27T09:22:03;5.00;99.90
12688;DHT22;6408;59.388;17.798;2023-02-27T09:24:30;4.90;99.90
12688;DHT22;6408;59.388;17.798;2023-02-27T09:27:00;4.70;99.90
12688;DHT22;6408;59.388;17.798;2023-02-27T09:29:27;4.60;99.90
12688;DHT22;6408;59.388;17.798;2023-02-27T09:31:55;4.60;99.90
12688;DHT22;6408;59.388;17.798;2023-02-27T09:34:22;4.70;99.90
12688;DHT22;6408;59.388;17.798;2023-02-27T09:36:50;4.90;99.90
12688;DHT22;6408;59.388;17.798;2023-02-27T09:39:18;5.00;99.90
12688;DHT22;6408;59.388;17.798;2023-02-27T09:41:51;5.00;99.90
12688;DHT22;6408;59.388;17.798;2023-02-27T09:44:32;5.00;99.90
12688;DHT22;6408;59.388;17.798;2023-02-27T09:47:03;5.00;99.90
12688;DHT22;6408;59.388;17.798;2023-02-27T09:49:35;5.20;99.90
12688;DHT22;6408;59.388;17.798;2023-02-27T09:52:12;5.50;99.90
12688;DHT22;6408;59.388;17.798;2023-02-27T09:54:40;5.80;99.90
12688;DHT22;6408;59.388;17.798;2023-02-27T09:57:14;5.90;99.90
12688;DHT22;6408;59.388;17.798;2023-02-27T09:59:48;5.90;99.90
12688;DHT22;6408;59.388;17.798;2023-02-27T10:02:37;6.00;99.90
12688;DHT22;6408;59.388;17.798;2023-02-27T10:05:18;6.00;99.90
12688;DHT22;6408;59.388;17.798;2023-02-27T10:07:55;6.10;99.90
12688;DHT22;6408;59.388;17.798;2023-02-27T10:10:30;6.20;99.90
12688;DHT22;6408;59.388;17.798;2023-02-27T10:13:10;6.30;99.90
12688;DHT22;6408;59.388;17.798;2023-02-27T10:15:49;6.20;99.90
12688;DHT22;6408;59.388;17.798;2023-02-27T10:18:20;6.40;99.90
12688;DHT22;6408;59.388;17.798;2023-02-27T10:20:51;6.50;99.90
12688;DHT22;6408;59.388;17.798;2023-02-27T10:23:25;6.50;99.90
12688;DHT22;6408;59.388;17.798;2023-02-27T10:25:56;6.50;99.90
12688;DHT22;6408;59.388;17.798;2023-02-27T10:28:25;6.60;99.90
12688;DHT22;6408;59.388;17.798;2023-02-27T10:30:57;6.80;99.90
12688;DHT22;6408;59.388;17.798;2023-02-27T10:33:31;7.30;99.90
12688;DHT22;6408;59.388;17.798;2023-02-27T10:36:00;7.40;99.90
12688;DHT22;6408;59.388;17.798;2023-02-27T10:38:31;8.20;99.90
12688;DHT22;6408;59.388;17.798;2023-02-27T10:41:00;8.30;99.90
12688;DHT22;6408;59.388;17.798;2023-02-27T10:43:28;8.80;99.90
12688;DHT22;6408;59.388;17.798;2023-02-27T10:46:00;10.70;99.90
12688;DHT22;6408;59.388;17.798;2023-02-27T10:48:27;11.80;99.90
12688;DHT22;6408;59.388;17.798;2023-02-27T10:51:20;12.30;99.90
12688;DHT22;6408;59.388;17.798;2023-02-27T10:53:48;12.50;99.90
12688;DHT22;6408;59.388;17.798;2023-02-27T10:56:23;13.60;99.90
12688;DHT22;6408;59.388;17.798;2023-02-27T10:59:03;16.00;99.90
12688;DHT22;6408;59.388;17.798;2023-02-27T11:01:45;16.60;99.90
12688;DHT22;6408;59.388;17.798;2023-02-27T11:04:13;15.90;99.90
12688;DHT22;6408;59.388;17.798;2023-02-27T11:06:51;17.30;99.90
12688;DHT22;6408;59.388;17.798;2023-02-27T11:09:21;19.60;99.90
12688;DHT22;6408;59.388;17.798;2023-02-27T11:11:50;20.50;99.90
12688;DHT22;6408;59.388;17.798;2023-02-27T11:14:26;21.50;99.90
12688;DHT22;6408;59.388;17.798;2023-02-27T11:16:57;21.80;99.90
12688;DHT22;6408;59.388;17.798;2023-02-27T11:19:30;21.90;99.90
12688;DHT22;6408;59.388;17.798;2023-02-27T11:22:03;21.60;99.90
12688;DHT22;6408;59.388;17.798;2023-02-27T11:24:32;20.90;99.90
12688;DHT22;6408;59.388;17.798;2023-02-27T11:27:01;21.30;99.90
12688;DHT22;6408;59.388;17.798;2023-02-27T11:29:30;21.70;99.90
12688;DHT22;6408;59.388;17.798;2023-02-27T11:32:02;21.80;99.90
12688;DHT22;6408;59.388;17.798;2023-02-27T11:34:32;22.50;99.90
12688;DHT22;6408;59.388;17.798;2023-02-27T11:37:04;22.70;99.90
12688;DHT22;6408;59.388;17.798;2023-02-27T11:39:35;22.40;99.90
12688;DHT22;6408;59.388;17.798;2023-02-27T11:42:15;23.20;99.90
12688;DHT22;6408;59.388;17.798;2023-02-27T11:45:05;23.30;99.90
12688;DHT22;6408;59.388;17.798;2023-02-27T11:47:36;22.80;99.90
12688;DHT22;6408;59.388;17.798;2023-02-27T11:50:18;23.30;99.90
12688;DHT22;6408;59.388;17.798;2023-02-27T11:53:00;23.10;99.90
12688;DHT22;6408;59.388;17.798;2023-02-27T11:55:31;22.70;99.90
12688;DHT22;6408;59.388;17.798;2023-02-27T11:58:03;22.80;99.90
12688;DHT22;6408;59.388;17.798;2023-02-27T12:00:35;22.80;99.90
12688;DHT22;6408;59.388;17.798;2023-02-27T12:03:15;22.30;99.90
12688;DHT22;6408;59.388;17.798;2023-02-27T12:05:48;22.30;99.90
12688;DHT22;6408;59.388;17.798;2023-02-27T12:08:18;22.70;99.90
12688;DHT22;6408;59.388;17.798;2023-02-27T12:10:52;22.40;99.90
12688;DHT22;6408;59.388;17.798;2023-02-27T12:13:24;22.30;99.90
12688;DHT22;6408;59.388;17.798;2023-02-27T12:15:58;21.60;99.90
12688;DHT22;6408;59.388;17.798;2023-02-27T12:18:37;21.20;99.90
12688;DHT22;6408;59.388;17.798;2023-02-27T12:21:08;21.70;99.90
12688;DHT22;6408;59.388;17.798;2023-02-27T12:23:39;21.80;99.90
12688;DHT22;6408;59.388;17.798;2023-02-27T12:26:13;20.90;99.90
12688;DHT22;6408;59.388;17.798;2023-02-27T12:28:50;20.90;99.90
12688;DHT22;6408;59.388;17.798;2023-02-27T12:31:34;21.00;99.90
12688;DHT22;6408;59.388;17.798;2023-02-27T12:37:01;20.20;99.90
12688;DHT22;6408;59.388;17.798;2023-02-27T12:39:30;19.60;99.90
12688;DHT22;6408;59.388;17.798;2023-02-27T12:42:23;18.80;99.90
12688;DHT22;6408;59.388;17.798;2023-02-27T12:48:01;17.30;99.90
12688;DHT22;6408;59.388;17.798;2023-02-27T12:50:43;16.50;99.90
12688;DHT22;6408;59.388;17.798;2023-02-27T12:56:12;14.60;99.90
12688;DHT22;6408;59.388;17.798;2023-02-27T12:58:47;12.90;99.90
12688;DHT22;6408;59.388;17.798;2023-02-27T13:01:26;11.50;99.90
12688;DHT22;6408;59.388;17.798;2023-02-27T13:04:01;10.80;99.90
12688;DHT22;6408;59.388;17.798;2023-02-27T13:06:36;10.40;99.90
12688;DHT22;6408;59.388;17.798;2023-02-27T13:09:19;10.20;99.90
12688;DHT22;6408;59.388;17.798;2023-02-27T13:11:57;10.00;99.90
12688;DHT22;6408;59.388;17.798;2023-02-27T13:14:37;9.80;99.90
12688;DHT22;6408;59.388;17.798;2023-02-27T13:17:16;9.50;99.90
12688;DHT22;6408;59.388;17.798;2023-02-27T13:19:49;9.50;99.90
12688;DHT22;6408;59.388;17.798;2023-02-27T13:22:26;9.20;99.90
12688;DHT22;6408;59.388;17.798;2023-02-27T13:24:58;9.10;99.90
12688;DHT22;6408;59.388;17.798;2023-02-27T13:27:29;8.90;99.90
12688;DHT22;6408;59.388;17.798;2023-02-27T13:30:10;8.90;99.90
12688;DHT22;6408;59.388;17.798;2023-02-27T13:32:43;8.90;99.90
12688;DHT22;6408;59.388;17.798;2023-02-27T13:35:27;8.70;99.90
12688;DHT22;6408;59.388;17.798;2023-02-27T13:37:58;8.70;99.90
12688;DHT22;6408;59.388;17.798;2023-02-27T13:40:33;8.70;99.90
12688;DHT22;6408;59.388;17.798;2023-02-27T13:43:04;8.60;99.90
12688;DHT22;6408;59.388;17.798;2023-02-27T13:46:03;8.60;99.90
12688;DHT22;6408;59.388;17.798;2023-02-27T13:48:47;8.60;99.90
12688;DHT22;6408;59.388;17.798;2023-02-27T13:51:47;8.60;99.90
12688;DHT22;6408;59.388;17.798;2023-02-27T13:54:40;8.50;99.90
12688;DHT22;6408;59.388;17.798;2023-02-27T13:57:19;8.40;99.90
12688;DHT22;6408;59.388;17.798;2023-02-27T14:00:15;8.30;99.90
12688;DHT22;6408;59.388;17.798;2023-02-27T14:02:50;8.20;99.90
12688;DHT22;6408;59.388;17.798;2023-02-27T14:05:27;8.20;99.90
12688;DHT22;6408;59.388;17.798;2023-02-27T14:08:07;8.10;99.90
12688;DHT22;6408;59.388;17.798;2023-02-27T14:10:39;8.10;99.90
12688;DHT22;6408;59.388;17.798;2023-02-27T14:16:11;8.00;99.90
12688;DHT22;6408;59.388;17.798;2023-02-27T14:18:54;8.10;99.90
12688;DHT22;6408;59.388;17.798;2023-02-27T14:21:53;8.00;99.90
12688;DHT22;6408;59.388;17.798;2023-02-27T14:24:30;8.00;99.90
12688;DHT22;6408;59.388;17.798;2023-02-27T14:27:03;7.90;99.90
12688;DHT22;6408;59.388;17.798;2023-02-27T14:29:33;7.90;99.90
12688;DHT22;6408;59.388;17.798;2023-02-27T14:32:03;7.80;99.90
12688;DHT22;6408;59.388;17.798;2023-02-27T14:34:35;7.80;99.90
12688;DHT22;6408;59.388;17.798;2023-02-27T14:37:06;7.80;99.90
12688;DHT22;6408;59.388;17.798;2023-02-27T14:39:37;7.70;99.90
12688;DHT22;6408;59.388;17.798;2023-02-27T14:42:26;7.70;99.90
12688;DHT22;6408;59.388;17.798;2023-02-27T14:44:56;7.70;99.90
12688;DHT22;6408;59.388;17.798;2023-02-27T14:47:28;7.50;99.90
12688;DHT22;6408;59.388;17.798;2023-02-27T14:49:57;7.50;99.90
12688;DHT22;6408;59.388;17.798;2023-02-27T14:52:27;7.50;99.90
12688;DHT22;6408;59.388;17.798;2023-02-27T14:55:07;7.50;99.90
12688;DHT22;6408;59.388;17.798;2023-02-27T14:57:52;7.50;99.90
12688;DHT22;6408;59.388;17.798;2023-02-27T15:00:35;7.40;99.90
12688;DHT22;6408;59.388;17.798;2023-02-27T15:03:18;7.40;99.90
12688;DHT22;6408;59.388;17.798;2023-02-27T15:05:47;7.30;99.90
12688;DHT22;6408;59.388;17.798;2023-02-27T15:08:18;7.30;99.90
12688;DHT22;6408;59.388;17.798;2023-02-27T15:10:46;7.20;99.90
12688;DHT22;6408;59.388;17.798;2023-02-27T15:13:23;7.20;99.90
12688;DHT22;6408;59.388;17.798;2023-02-27T15:15:51;7.10;99.90
12688;DHT22;6408;59.388;17.798;2023-02-27T15:18:40;7.10;99.90
12688;DHT22;6408;59.388;17.798;2023-02-27T15:21:13;7.00;99.90
12688;DHT22;6408;59.388;17.798;2023-02-27T15:23:41;7.00;99.90
12688;DHT22;6408;59.388;17.798;2023-02-27T15:26:11;6.90;99.90
12688;DHT22;6408;59.388;17.798;2023-02-27T15:28:41;6.80;99.90
12688;DHT22;6408;59.388;17.798;2023-02-27T15:31:11;6.80;99.90
12688;DHT22;6408;59.388;17.798;2023-02-27T15:33:40;6.70;99.90
12688;DHT22;6408;59.388;17.798;2023-02-27T15:36:18;6.70;99.90
12688;DHT22;6408;59.388;17.798;2023-02-27T15:38:46;6.60;99.90
12688;DHT22;6408;59.388;17.798;2023-02-27T15:41:28;6.50;99.90
12688;DHT22;6408;59.388;17.798;2023-02-27T15:43:58;6.50;99.90
12688;DHT22;6408;59.388;17.798;2023-02-27T15:46:26;6.30;99.90
12688;DHT22;6408;59.388;17.798;2023-02-27T15:48:54;6.30;99.90
12688;DHT22;6408;59.388;17.798;2023-02-27T15:51:24;6.30;99.90
12688;DHT22;6408;59.388;17.798;2023-02-27T15:53:54;6.20;99.90
12688;DHT22;6408;59.388;17.798;2023-02-27T15:56:27;6.10;99.90
12688;DHT22;6408;59.388;17.798;2023-02-27T15:58:59;6.00;99.90
12688;DHT22;6408;59.388;17.798;2023-02-27T16:01:29;6.00;99.90
12688;DHT22;6408;59.388;17.798;2023-02-27T16:03:59;5.90;99.90
12688;DHT22;6408;59.388;17.798;2023-02-27T16:06:29;5.80;99.90
12688;DHT22;6408;59.388;17.798;2023-02-27T16:08:59;5.80;99.90
12688;DHT22;6408;59.388;17.798;2023-02-27T16:11:28;5.80;99.90
12688;DHT22;6408;59.388;17.798;2023-02-27T16:13:58;5.70;99.90
12688;DHT22;6408;59.388;17.798;2023-02-27T16:16:28;5.60;99.90
12688;DHT22;6408;59.388;17.798;2023-02-27T16:19:15;5.40;99.90
12688;DHT22;6408;59.388;17.798;2023-02-27T16:22:01;5.30;99.90
12688;DHT22;6408;59.388;17.798;2023-02-27T16:24:30;5.20;99.90
12688;DHT22;6408;59.388;17.798;2023-02-27T16:26:58;5.10;99.90
12688;DHT22;6408;59.388;17.798;2023-02-27T16:29:32;5.00;99.90
12688;DHT22;6408;59.388;17.798;2023-02-27T16:32:01;5.00;99.90